Time;durP1;ratioP1;P1;durP2;ratioP2;P2;SDS_P1;SDS_P2;PMS_P1;PMS_P2;Temp;Humidity;BMP_temperature;BMP_pressure;BME280_temperature;BME280_humidity;BME280_pressure;Samples;Min_cycle;Max_cycle;Signal;HPM_P1;HPM_P2
2023/01/05 00:01:30;;;;;;;7.10;4.80;;;;;;;;;;778154;181;916330;-62
2023/01/05 00:03:56;;;;;;;6.50;4.13;;;;;;;;;;774391;181;917111;-62
2023/01/05 00:06:22;;;;;;;7.20;3.70;;;;;;;;;;755380;181;919341;-64
2023/01/05 00:08:48;;;;;;;5.20;3.33;;;;;;;;;;755726;184;916682;-67
2023/01/05 00:23:52;;;;;;;5.70;3.87;;;;;;;;;;775109;179;920453;-62
2023/01/05 00:26:18;;;;;;;5.47;3.63;;;;;;;;;;769203;180;920174;-62
2023/01/05 00:28:44;;;;;;;5.97;3.67;;;;;;;;;;771059;181;817429;-65
2023/01/05 00:31:09;;;;;;;11.43;3.63;;;;;;;;;;776823;182;918371;-67
2023/01/05 00:33:35;;;;;;;5.13;3.07;;;;;;;;;;773292;181;813154;-62
2023/01/05 00:36:01;;;;;;;7.30;3.53;;;;;;;;;;774588;181;916499;-67
2023/01/05 00:38:27;;;;;;;5.18;3.15;;;;;;;;;;778971;180;922418;-67
2023/01/05 00:40:54;;;;;;;7.13;4.40;;;;;;;;;;761404;181;916160;-67
2023/01/05 00:43:19;;;;;;;5.27;3.23;;;;;;;;;;755266;184;919040;-63
2023/01/05 00:45:44;;;;;;;6.10;3.67;;;;;;;;;;766679;181;913735;-63
2023/01/05 00:48:10;;;;;;;8.27;3.13;;;;;;;;;;776927;181;918517;-62
2023/01/05 00:50:36;;;;;;;7.07;4.20;;;;;;;;;;765220;181;919596;-67
2023/01/05 00:53:02;;;;;;;6.10;2.77;;;;;;;;;;762403;183;917009;-61
2023/01/05 00:55:28;;;;;;;5.33;3.10;;;;;;;;;;770736;181;918410;-67
2023/01/05 00:57:54;;;;;;;6.07;3.65;;;;;;;;;;771789;180;919151;-68
2023/01/05 01:00:19;;;;;;;4.50;3.03;;;;;;;;;;774727;180;920666;-67
2023/01/05 01:02:45;;;;;;;5.10;3.20;;;;;;;;;;780307;181;918905;-66
2023/01/05 01:05:11;;;;;;;8.60;4.60;;;;;;;;;;772609;181;920660;-67
2023/01/05 01:07:37;;;;;;;4.50;3.00;;;;;;;;;;770566;181;919222;-68
2023/01/05 01:10:03;;;;;;;6.20;3.43;;;;;;;;;;776090;182;816314;-62
2023/01/05 01:12:29;;;;;;;5.00;2.77;;;;;;;;;;776878;182;919885;-61
2023/01/05 01:14:55;;;;;;;4.43;3.27;;;;;;;;;;771589;182;919360;-67
2023/01/05 01:17:21;;;;;;;10.60;3.77;;;;;;;;;;772543;181;919237;-63
2023/01/05 01:19:47;;;;;;;4.40;2.70;;;;;;;;;;777729;182;917883;-62
2023/01/05 01:22:13;;;;;;;4.67;2.87;;;;;;;;;;773145;182;917584;-62
2023/01/05 01:24:39;;;;;;;5.40;2.97;;;;;;;;;;772560;181;919432;-61
2023/01/05 01:27:04;;;;;;;7.55;2.70;;;;;;;;;;778151;182;919273;-62
2023/01/05 01:29:30;;;;;;;5.03;2.80;;;;;;;;;;773093;182;919732;-62
2023/01/05 01:31:56;;;;;;;5.57;3.30;;;;;;;;;;768844;182;919101;-62
2023/01/05 01:34:23;;;;;;;4.93;2.30;;;;;;;;;;772954;182;919109;-67
2023/01/05 01:36:48;;;;;;;4.10;2.70;;;;;;;;;;771966;181;919206;-63
2023/01/05 01:39:14;;;;;;;7.03;3.83;;;;;;;;;;772665;180;919008;-61
2023/01/05 01:41:40;;;;;;;3.70;2.27;;;;;;;;;;772729;181;928697;-61
2023/01/05 01:44:11;;;;;;;5.03;2.43;;;;;;;;;;777113;182;918376;-68
2023/01/05 01:46:37;;;;;;;4.07;2.45;;;;;;;;;;771272;182;919157;-61
2023/01/05 01:49:03;;;;;;;5.10;2.93;;;;;;;;;;777231;180;619931;-67
2023/01/05 01:51:29;;;;;;;4.50;3.03;;;;;;;;;;775400;182;803601;-67
2023/01/05 01:53:55;;;;;;;7.00;2.47;;;;;;;;;;770425;183;919147;-61
2023/01/05 01:56:21;;;;;;;3.05;2.10;;;;;;;;;;759587;182;919034;-67
2023/01/05 01:58:47;;;;;;;3.63;2.03;;;;;;;;;;753141;186;944041;-67
2023/01/05 02:01:13;;;;;;;3.57;2.33;;;;;;;;;;769737;182;817200;-61
2023/01/05 02:03:38;;;;;;;4.17;2.83;;;;;;;;;;769397;180;882882;-67
2023/01/05 02:06:05;;;;;;;3.07;1.90;;;;;;;;;;767732;181;819135;-61
2023/01/05 02:08:30;;;;;;;3.60;2.50;;;;;;;;;;780472;182;629671;-62
2023/01/05 02:10:57;;;;;;;3.23;1.70;;;;;;;;;;774508;181;918625;-68
2023/01/05 02:13:23;;;;;;;2.87;1.80;;;;;;;;;;778948;180;619290;-67
2023/01/05 02:15:50;;;;;;;4.10;2.70;;;;;;;;;;779323;181;630160;-66
2023/01/05 02:18:16;;;;;;;7.13;2.30;;;;;;;;;;779030;179;631314;-60
2023/01/05 02:20:46;;;;;;;3.40;1.93;;;;;;;;;;775541;181;916569;-66
2023/01/05 02:23:18;;;;;;;5.57;2.40;;;;;;;;;;775238;180;918633;-66
2023/01/05 02:25:43;;;;;;;3.77;2.30;;;;;;;;;;778147;180;917274;-67
2023/01/05 02:28:15;;;;;;;4.57;2.43;;;;;;;;;;765141;181;940755;-61
2023/01/05 02:30:46;;;;;;;3.40;2.33;;;;;;;;;;762293;181;853623;-61
2023/01/05 02:33:23;;;;;;;4.07;2.17;;;;;;;;;;772647;182;919098;-61
2023/01/05 02:35:48;;;;;;;5.70;2.20;;;;;;;;;;771054;179;919570;-61
2023/01/05 02:38:17;;;;;;;3.27;2.23;;;;;;;;;;773833;182;919185;-67
2023/01/05 02:40:43;;;;;;;3.87;1.83;;;;;;;;;;767968;182;919327;-65
2023/01/05 02:43:09;;;;;;;3.30;1.70;;;;;;;;;;763061;182;918180;-67
2023/01/05 02:45:35;;;;;;;4.68;2.40;;;;;;;;;;769087;180;919257;-67
2023/01/05 02:48:01;;;;;;;4.50;2.07;;;;;;;;;;770315;181;915118;-66
2023/01/05 02:50:31;;;;;;;4.23;2.30;;;;;;;;;;767670;181;920941;-66
2023/01/05 02:53:00;;;;;;;3.70;2.20;;;;;;;;;;771423;181;917957;-62
2023/01/05 02:55:25;;;;;;;4.10;2.50;;;;;;;;;;778201;181;817296;-66
2023/01/05 02:57:54;;;;;;;7.27;2.90;;;;;;;;;;762997;182;919344;-66
2023/01/05 03:00:26;;;;;;;6.47;3.73;;;;;;;;;;763438;182;920095;-67
2023/01/05 03:02:51;;;;;;;3.63;2.20;;;;;;;;;;761055;182;919037;-67
2023/01/05 03:05:19;;;;;;;3.67;2.80;;;;;;;;;;777297;180;918665;-62
2023/01/05 03:07:45;;;;;;;4.07;2.70;;;;;;;;;;753755;186;922796;-63
2023/01/05 03:15:20;;;;;;;4.67;2.70;;;;;;;;;;779820;181;817194;-66
2023/01/05 03:17:46;;;;;;;5.13;3.07;;;;;;;;;;778490;181;919082;-67
2023/01/05 03:20:12;;;;;;;4.00;2.47;;;;;;;;;;772808;181;919733;-67
2023/01/05 03:37:50;;;;;;;3.80;1.60;;;;;;;;;;775698;181;918508;-62
2023/01/05 03:40:16;;;;;;;2.87;1.60;;;;;;;;;;770888;182;918905;-62
2023/01/05 03:42:42;;;;;;;3.23;1.50;;;;;;;;;;771503;179;947255;-68
2023/01/05 03:45:08;;;;;;;2.83;1.80;;;;;;;;;;772983;181;917786;-61
2023/01/05 03:47:34;;;;;;;2.20;1.20;;;;;;;;;;762152;182;918952;-67
2023/01/05 03:50:00;;;;;;;3.50;1.87;;;;;;;;;;754546;184;919860;-62
2023/01/05 03:52:26;;;;;;;2.90;1.73;;;;;;;;;;767833;182;858287;-67
2023/01/05 03:54:52;;;;;;;2.40;1.20;;;;;;;;;;773232;182;925401;-63
2023/01/05 03:57:18;;;;;;;2.50;1.27;;;;;;;;;;764382;182;1021170;-68
2023/01/05 03:59:43;;;;;;;3.57;2.10;;;;;;;;;;764951;182;816218;-68
2023/01/05 04:02:09;;;;;;;3.10;1.60;;;;;;;;;;773534;182;816740;-68
2023/01/05 04:04:35;;;;;;;2.97;1.30;;;;;;;;;;770680;182;918998;-64
2023/01/05 04:07:01;;;;;;;2.07;1.00;;;;;;;;;;775501;181;840523;-64
2023/01/05 04:09:27;;;;;;;2.00;1.20;;;;;;;;;;774516;181;911948;-67
2023/01/05 04:11:53;;;;;;;2.30;1.27;;;;;;;;;;772405;179;941976;-68
2023/01/05 04:14:18;;;;;;;2.43;1.20;;;;;;;;;;763875;182;919082;-68
2023/01/05 04:16:44;;;;;;;2.20;1.10;;;;;;;;;;768322;181;911772;-64
2023/01/05 04:19:10;;;;;;;2.43;1.40;;;;;;;;;;772432;181;916937;-64
2023/01/05 04:21:36;;;;;;;2.53;1.33;;;;;;;;;;765016;181;918661;-64
2023/01/05 04:24:02;;;;;;;2.35;1.08;;;;;;;;;;763486;182;919035;-71
2023/01/05 04:26:28;;;;;;;2.23;1.47;;;;;;;;;;775277;181;919410;-64
2023/01/05 04:28:53;;;;;;;3.00;1.53;;;;;;;;;;772322;181;919038;-65
2023/01/05 04:31:19;;;;;;;2.57;1.50;;;;;;;;;;771984;180;919006;-68
2023/01/05 04:33:45;;;;;;;3.80;1.40;;;;;;;;;;773030;180;919398;-69
2023/01/05 04:36:11;;;;;;;2.80;1.23;;;;;;;;;;787618;174;818276;-68
2023/01/05 04:38:37;;;;;;;3.03;1.60;;;;;;;;;;768921;181;917110;-69
2023/01/05 04:41:03;;;;;;;2.73;1.47;;;;;;;;;;771927;181;918276;-70
2023/01/05 04:43:29;;;;;;;2.27;1.33;;;;;;;;;;775680;182;919203;-68
2023/01/05 04:45:55;;;;;;;2.47;1.37;;;;;;;;;;768067;181;918304;-65
2023/01/05 04:48:20;;;;;;;3.90;1.47;;;;;;;;;;768732;181;919258;-64
2023/01/05 04:50:46;;;;;;;2.20;1.10;;;;;;;;;;771573;181;920487;-67
2023/01/05 04:53:12;;;;;;;3.00;1.40;;;;;;;;;;770469;180;923754;-64
2023/01/05 04:55:38;;;;;;;2.63;1.20;;;;;;;;;;766727;181;918558;-64
2023/01/05 04:58:04;;;;;;;3.23;1.30;;;;;;;;;;770437;181;919143;-64
2023/01/05 05:00:30;;;;;;;2.45;1.30;;;;;;;;;;759957;181;924406;-64
2023/01/05 05:02:55;;;;;;;2.10;1.10;;;;;;;;;;763806;180;919206;-68
2023/01/05 05:05:21;;;;;;;3.83;1.53;;;;;;;;;;771840;180;828437;-64
2023/01/05 05:07:47;;;;;;;2.63;1.30;;;;;;;;;;769117;180;818545;-64
2023/01/05 05:10:16;;;;;;;2.80;1.57;;;;;;;;;;754919;184;938977;-64
2023/01/05 05:12:39;;;;;;;6.35;1.45;;;;;;;;;;768377;179;879513;-64
2023/01/05 05:15:05;;;;;;;4.10;1.30;;;;;;;;;;777244;181;844310;-68
2023/01/05 05:17:31;;;;;;;2.33;1.40;;;;;;;;;;771470;181;916407;-69
2023/01/05 05:19:57;;;;;;;3.27;1.40;;;;;;;;;;769035;182;872202;-68
2023/01/05 05:22:23;;;;;;;3.37;1.35;;;;;;;;;;777137;181;919227;-68
2023/01/05 05:24:49;;;;;;;2.90;1.20;;;;;;;;;;767126;181;917867;-69
2023/01/05 05:27:14;;;;;;;2.07;1.37;;;;;;;;;;774427;181;847627;-64
2023/01/05 05:29:40;;;;;;;2.27;1.10;;;;;;;;;;773670;182;933842;-64
2023/01/05 05:32:06;;;;;;;4.00;1.40;;;;;;;;;;780363;180;818743;-63
2023/01/05 05:34:32;;;;;;;2.60;1.40;;;;;;;;;;765427;182;921406;-64
2023/01/05 05:36:58;;;;;;;2.23;1.20;;;;;;;;;;765315;182;921064;-64
2023/01/05 05:39:24;;;;;;;3.20;1.43;;;;;;;;;;773655;182;919169;-69
2023/01/05 05:41:50;;;;;;;4.40;1.25;;;;;;;;;;768111;182;921207;-70
2023/01/05 05:44:16;;;;;;;2.97;1.87;;;;;;;;;;766302;182;916391;-68
2023/01/05 05:46:42;;;;;;;2.70;1.40;;;;;;;;;;777528;179;920823;-64
2023/01/05 05:49:08;;;;;;;3.57;1.40;;;;;;;;;;772550;180;919346;-63
2023/01/05 05:51:34;;;;;;;4.10;1.80;;;;;;;;;;768436;180;919120;-64
2023/01/05 05:54:00;;;;;;;3.20;1.42;;;;;;;;;;768122;181;920745;-65
2023/01/05 05:56:26;;;;;;;2.10;0.97;;;;;;;;;;776957;180;820562;-68
2023/01/05 05:58:52;;;;;;;4.80;1.23;;;;;;;;;;768754;181;920105;-68
2023/01/05 06:01:17;;;;;;;2.12;1.12;;;;;;;;;;766430;181;926422;-68
2023/01/05 06:03:44;;;;;;;4.93;1.40;;;;;;;;;;774608;181;917873;-69
2023/01/05 06:06:10;;;;;;;2.60;1.50;;;;;;;;;;771476;180;818745;-63
2023/01/05 06:08:36;;;;;;;3.60;1.27;;;;;;;;;;764967;181;915800;-64
2023/01/05 06:11:01;;;;;;;2.50;1.20;;;;;;;;;;776762;181;813060;-69
2023/01/05 06:13:27;;;;;;;2.60;1.70;;;;;;;;;;768078;181;919142;-63
2023/01/05 06:15:53;;;;;;;3.40;1.60;;;;;;;;;;766299;182;920798;-68
2023/01/05 06:18:19;;;;;;;1.97;1.10;;;;;;;;;;771282;179;922914;-63
2023/01/05 06:20:45;;;;;;;2.57;1.20;;;;;;;;;;765627;182;919468;-68
2023/01/05 06:23:11;;;;;;;2.03;1.07;;;;;;;;;;768208;182;919294;-70
2023/01/05 06:25:36;;;;;;;3.70;1.10;;;;;;;;;;768090;181;930391;-64
2023/01/05 06:28:02;;;;;;;2.05;0.90;;;;;;;;;;775031;181;921288;-62
2023/01/05 06:30:28;;;;;;;2.90;1.20;;;;;;;;;;768397;179;819009;-63
2023/01/05 06:32:54;;;;;;;2.43;1.30;;;;;;;;;;768086;182;917054;-63
2023/01/05 06:35:20;;;;;;;3.30;1.00;;;;;;;;;;772751;182;818907;-63
2023/01/05 06:37:46;;;;;;;1.80;0.90;;;;;;;;;;766612;182;816797;-69
2023/01/05 06:40:12;;;;;;;2.07;1.03;;;;;;;;;;768365;182;918934;-63
2023/01/05 06:42:37;;;;;;;2.73;0.93;;;;;;;;;;771139;180;837885;-69
2023/01/05 06:45:04;;;;;;;1.80;0.80;;;;;;;;;;767291;180;919331;-63
2023/01/05 06:47:30;;;;;;;1.93;0.80;;;;;;;;;;763659;181;919013;-63
2023/01/05 06:49:55;;;;;;;2.43;1.07;;;;;;;;;;772433;180;927593;-68
2023/01/05 06:52:21;;;;;;;2.00;0.90;;;;;;;;;;770490;181;912162;-68
2023/01/05 06:54:47;;;;;;;1.90;0.90;;;;;;;;;;768051;181;919226;-63
2023/01/05 06:57:13;;;;;;;2.43;0.90;;;;;;;;;;770135;180;914910;-63
2023/01/05 06:59:39;;;;;;;2.20;1.10;;;;;;;;;;775077;181;809609;-63
2023/01/05 07:02:05;;;;;;;2.50;1.13;;;;;;;;;;767095;181;918912;-63
2023/01/05 07:04:30;;;;;;;2.30;1.10;;;;;;;;;;767295;181;916657;-63
2023/01/05 07:06:56;;;;;;;3.10;1.47;;;;;;;;;;772338;181;915612;-68
2023/01/05 07:09:22;;;;;;;2.00;1.03;;;;;;;;;;769369;180;918874;-63
2023/01/05 07:11:48;;;;;;;2.80;1.10;;;;;;;;;;769247;181;919351;-68
2023/01/05 07:14:14;;;;;;;2.43;1.00;;;;;;;;;;769637;181;919383;-67
2023/01/05 07:16:40;;;;;;;3.00;1.40;;;;;;;;;;767039;180;918908;-62
2023/01/05 07:19:06;;;;;;;3.30;0.90;;;;;;;;;;767425;179;919342;-68
2023/01/05 07:21:31;;;;;;;1.98;0.82;;;;;;;;;;771482;180;915027;-62
2023/01/05 07:23:57;;;;;;;2.13;1.07;;;;;;;;;;778107;182;918655;-62
2023/01/05 07:26:23;;;;;;;3.03;1.00;;;;;;;;;;773644;182;918831;-62
2023/01/05 07:28:49;;;;;;;4.30;1.00;;;;;;;;;;768983;181;919548;-62
2023/01/05 07:31:15;;;;;;;1.93;0.90;;;;;;;;;;774378;182;918017;-68
2023/01/05 07:33:40;;;;;;;3.33;1.40;;;;;;;;;;766973;181;919557;-68
2023/01/05 07:36:07;;;;;;;2.33;1.17;;;;;;;;;;769672;181;823405;-68
2023/01/05 07:38:33;;;;;;;2.77;1.17;;;;;;;;;;770528;182;916378;-69
2023/01/05 07:40:58;;;;;;;2.10;1.10;;;;;;;;;;767454;182;918097;-63
2023/01/05 07:43:24;;;;;;;2.17;1.23;;;;;;;;;;769772;180;918800;-68
2023/01/05 07:45:50;;;;;;;2.53;1.00;;;;;;;;;;767438;181;919254;-63
2023/01/05 07:48:16;;;;;;;3.00;1.10;;;;;;;;;;771459;182;816896;-62
2023/01/05 07:50:42;;;;;;;2.00;1.00;;;;;;;;;;768882;182;919245;-68
2023/01/05 07:53:08;;;;;;;3.60;1.10;;;;;;;;;;770988;182;917567;-63
2023/01/05 07:55:33;;;;;;;3.43;1.17;;;;;;;;;;778047;180;920876;-68
2023/01/05 07:57:59;;;;;;;5.00;1.53;;;;;;;;;;771844;181;819355;-68
2023/01/05 08:00:25;;;;;;;2.87;1.33;;;;;;;;;;766748;181;918574;-63
2023/01/05 08:02:51;;;;;;;4.82;1.80;;;;;;;;;;773606;182;918262;-67
2023/01/05 08:05:17;;;;;;;3.00;1.37;;;;;;;;;;766375;180;897852;-63
2023/01/05 08:07:43;;;;;;;4.30;1.50;;;;;;;;;;768542;181;915336;-67
2023/01/05 08:15:12;;;;;;;5.30;1.30;;;;;;;;;;767786;180;917416;-63
2023/01/05 08:17:39;;;;;;;4.23;1.47;;;;;;;;;;767387;181;915272;-68
2023/01/05 08:20:04;;;;;;;4.23;1.37;;;;;;;;;;765359;180;917714;-67
2023/01/05 08:22:30;;;;;;;2.90;1.27;;;;;;;;;;775324;181;820507;-68
2023/01/05 08:24:56;;;;;;;2.27;1.20;;;;;;;;;;763669;180;915846;-67
2023/01/05 08:27:21;;;;;;;5.53;1.10;;;;;;;;;;766120;180;919156;-65
2023/01/05 08:29:47;;;;;;;2.47;1.67;;;;;;;;;;771840;181;918945;-62
2023/01/05 08:32:13;;;;;;;2.23;1.20;;;;;;;;;;768728;180;918879;-68
2023/01/05 08:34:39;;;;;;;2.13;1.03;;;;;;;;;;770447;180;923888;-68
2023/01/05 08:37:05;;;;;;;2.73;1.30;;;;;;;;;;771910;182;918952;-68
2023/01/05 08:39:31;;;;;;;2.67;1.17;;;;;;;;;;765823;182;919883;-62
2023/01/05 08:41:56;;;;;;;1.83;0.90;;;;;;;;;;764956;182;918734;-62
2023/01/05 08:44:22;;;;;;;2.00;1.10;;;;;;;;;;767344;180;918906;-67
2023/01/05 08:46:48;;;;;;;2.43;1.03;;;;;;;;;;772158;179;912718;-67
2023/01/05 08:49:15;;;;;;;3.80;1.00;;;;;;;;;;767289;180;817190;-67
2023/01/05 08:51:41;;;;;;;3.00;1.00;;;;;;;;;;770159;182;919885;-63
2023/01/05 08:54:08;;;;;;;3.80;1.07;;;;;;;;;;775812;181;816902;-68
2023/01/05 08:56:35;;;;;;;2.23;1.40;;;;;;;;;;767090;181;912363;-63
2023/01/05 08:59:01;;;;;;;2.05;0.90;;;;;;;;;;768265;182;917439;-68
2023/01/05 09:01:29;;;;;;;2.13;1.10;;;;;;;;;;775796;181;919138;-62
2023/01/05 09:03:54;;;;;;;2.80;1.00;;;;;;;;;;762472;182;919464;-63
2023/01/05 09:06:20;;;;;;;2.33;1.00;;;;;;;;;;764076;181;919570;-62
2023/01/05 09:08:46;;;;;;;2.23;1.13;;;;;;;;;;764939;181;1023114;-62
2023/01/05 09:11:12;;;;;;;1.70;0.80;;;;;;;;;;771003;181;918802;-67
2023/01/05 09:13:38;;;;;;;2.00;1.00;;;;;;;;;;766906;181;919179;-67
2023/01/05 09:16:12;;;;;;;2.57;1.47;;;;;;;;;;771926;180;816993;-62
2023/01/05 09:18:37;;;;;;;2.27;1.10;;;;;;;;;;765514;182;918852;-63
2023/01/05 09:21:05;;;;;;;3.00;1.00;;;;;;;;;;771292;176;919133;-68
2023/01/05 09:23:29;;;;;;;2.40;1.10;;;;;;;;;;773190;181;917465;-68
2023/01/05 09:25:55;;;;;;;2.90;1.17;;;;;;;;;;766461;181;914486;-62
2023/01/05 09:28:21;;;;;;;2.50;1.40;;;;;;;;;;777793;181;912017;-62
2023/01/05 09:30:47;;;;;;;2.80;1.30;;;;;;;;;;771493;180;921413;-68
2023/01/05 09:33:13;;;;;;;3.83;1.40;;;;;;;;;;767797;180;918384;-68
2023/01/05 09:35:39;;;;;;;2.63;1.43;;;;;;;;;;777450;180;917977;-62
2023/01/05 09:38:05;;;;;;;3.77;1.20;;;;;;;;;;769889;181;918892;-62
2023/01/05 09:40:32;;;;;;;3.10;1.17;;;;;;;;;;771025;181;919077;-67
2023/01/05 09:42:58;;;;;;;3.28;1.40;;;;;;;;;;774147;181;919148;-68
2023/01/05 09:45:24;;;;;;;3.13;1.40;;;;;;;;;;778882;180;921501;-68
2023/01/05 09:47:49;;;;;;;4.03;1.60;;;;;;;;;;769867;180;918427;-62
2023/01/05 09:50:19;;;;;;;3.15;1.67;;;;;;;;;;765842;181;919614;-63
2023/01/05 09:52:46;;;;;;;4.43;2.03;;;;;;;;;;776473;181;913658;-68
2023/01/05 09:55:16;;;;;;;11.30;3.47;;;;;;;;;;766091;182;918541;-68
2023/01/05 09:57:41;;;;;;;7.45;2.25;;;;;;;;;;755129;182;921774;-63
2023/01/05 10:00:07;;;;;;;5.73;2.30;;;;;;;;;;764987;181;920843;-68
2023/01/05 10:02:39;;;;;;;3.40;1.77;;;;;;;;;;766394;182;920826;-68
2023/01/05 10:05:05;;;;;;;3.00;1.80;;;;;;;;;;759251;182;920293;-63
2023/01/05 10:07:31;;;;;;;7.43;2.00;;;;;;;;;;768253;182;920733;-62
2023/01/05 10:09:57;;;;;;;4.30;2.07;;;;;;;;;;774851;181;920828;-68
2023/01/05 10:14:56;;;;;;;11.43;2.23;;;;;;;;;;770895;182;889848;-63
2023/01/05 10:17:21;;;;;;;5.60;2.35;;;;;;;;;;765024;182;919363;-68
2023/01/05 10:19:47;;;;;;;4.53;1.50;;;;;;;;;;770545;181;919340;-63
2023/01/05 10:22:15;;;;;;;4.63;2.40;;;;;;;;;;768789;182;918953;-70
2023/01/05 10:24:45;;;;;;;5.20;1.90;;;;;;;;;;766963;179;1117791;-63
2023/01/05 10:27:14;;;;;;;3.90;1.65;;;;;;;;;;766832;182;918794;-63
2023/01/05 10:29:42;;;;;;;5.00;1.90;;;;;;;;;;769950;181;915187;-63
2023/01/05 10:32:08;;;;;;;4.27;1.60;;;;;;;;;;767358;179;919898;-70
2023/01/05 10:34:37;;;;;;;4.40;2.00;;;;;;;;;;772536;181;919713;-63
2023/01/05 10:37:19;;;;;;;3.63;1.73;;;;;;;;;;773426;181;919539;-64
2023/01/05 10:39:50;;;;;;;4.62;2.00;;;;;;;;;;765215;181;820929;-68
2023/01/05 10:42:33;;;;;;;6.27;1.97;;;;;;;;;;775832;181;808233;-69
2023/01/05 10:44:58;;;;;;;4.33;2.20;;;;;;;;;;771991;178;817748;-63
2023/01/05 10:47:24;;;;;;;5.93;2.20;;;;;;;;;;769325;182;918914;-63
2023/01/05 10:49:50;;;;;;;9.48;1.95;;;;;;;;;;763746;182;918685;-69
2023/01/05 10:52:15;;;;;;;5.93;1.93;;;;;;;;;;776429;180;919323;-69
2023/01/05 10:54:42;;;;;;;5.20;1.90;;;;;;;;;;771525;180;918531;-64
2023/01/05 10:57:14;;;;;;;3.50;1.80;;;;;;;;;;772124;180;920797;-69
2023/01/05 10:59:55;;;;;;;5.40;1.93;;;;;;;;;;768646;182;917722;-63
2023/01/05 11:02:21;;;;;;;4.33;1.53;;;;;;;;;;757079;182;896558;-69
2023/01/05 11:04:47;;;;;;;3.43;1.50;;;;;;;;;;774149;182;916295;-63
2023/01/05 11:07:13;;;;;;;7.60;2.20;;;;;;;;;;770478;180;939108;-63
2023/01/05 11:09:39;;;;;;;4.37;1.50;;;;;;;;;;771792;182;919683;-63
2023/01/05 11:12:05;;;;;;;5.97;1.97;;;;;;;;;;768628;182;919032;-69
2023/01/05 11:14:32;;;;;;;3.80;1.50;;;;;;;;;;766507;182;919394;-68
2023/01/05 11:16:59;;;;;;;7.30;2.40;;;;;;;;;;771333;181;920420;-69
2023/01/05 11:19:27;;;;;;;8.55;2.20;;;;;;;;;;775532;181;954519;-68
2023/01/05 11:21:53;;;;;;;7.07;2.00;;;;;;;;;;770122;180;920322;-63
2023/01/05 11:24:25;;;;;;;5.10;2.20;;;;;;;;;;761999;182;914144;-63
2023/01/05 11:26:52;;;;;;;4.17;2.33;;;;;;;;;;762638;181;905969;-69
2023/01/05 11:29:18;;;;;;;5.77;2.10;;;;;;;;;;777256;182;917726;-71
2023/01/05 11:31:44;;;;;;;4.80;1.93;;;;;;;;;;765976;181;917674;-70
2023/01/05 11:34:12;;;;;;;4.45;2.08;;;;;;;;;;758486;182;918681;-69
2023/01/05 11:36:38;;;;;;;7.53;2.17;;;;;;;;;;767896;182;919301;-69
2023/01/05 11:39:04;;;;;;;4.35;1.90;;;;;;;;;;767730;182;816187;-63
2023/01/05 11:41:29;;;;;;;5.50;2.07;;;;;;;;;;760075;182;816577;-63
2023/01/05 11:43:59;;;;;;;9.83;1.90;;;;;;;;;;772389;179;915488;-71
2023/01/05 11:46:21;;;;;;;5.27;1.83;;;;;;;;;;777069;180;914006;-69
2023/01/05 11:48:47;;;;;;;3.40;1.90;;;;;;;;;;759398;180;919744;-63
2023/01/05 11:51:13;;;;;;;5.40;1.73;;;;;;;;;;773276;181;919718;-63
2023/01/05 11:53:39;;;;;;;4.87;2.23;;;;;;;;;;769972;182;919407;-69
2023/01/05 11:56:05;;;;;;;7.07;3.60;;;;;;;;;;763383;180;916974;-69
2023/01/05 11:58:31;;;;;;;4.67;1.97;;;;;;;;;;756005;186;872139;-64
2023/01/05 12:01:01;;;;;;;4.40;2.10;;;;;;;;;;768359;182;918475;-63
2023/01/05 12:03:33;;;;;;;3.83;1.90;;;;;;;;;;776117;180;919097;-63
2023/01/05 12:05:59;;;;;;;5.70;1.67;;;;;;;;;;770323;181;919662;-69
2023/01/05 12:08:35;;;;;;;3.83;1.87;;;;;;;;;;768199;181;918657;-69
2023/01/05 12:11:02;;;;;;;7.30;2.13;;;;;;;;;;771553;179;919242;-69
2023/01/05 12:13:31;;;;;;;3.70;1.93;;;;;;;;;;773859;181;914670;-63
2023/01/05 12:15:57;;;;;;;6.20;1.83;;;;;;;;;;775594;181;918682;-69
2023/01/05 12:18:28;;;;;;;4.20;1.77;;;;;;;;;;762298;179;919552;-69
2023/01/05 12:20:55;;;;;;;5.87;2.40;;;;;;;;;;764522;181;1022948;-63
2023/01/05 12:23:38;;;;;;;4.40;2.00;;;;;;;;;;771387;182;920743;-64
2023/01/05 12:26:19;;;;;;;5.30;1.70;;;;;;;;;;770399;181;913298;-69
2023/01/05 12:28:45;;;;;;;3.07;1.77;;;;;;;;;;776400;178;918207;-63
2023/01/05 12:31:27;;;;;;;8.50;2.07;;;;;;;;;;761831;182;805387;-64
2023/01/05 12:33:53;;;;;;;4.53;1.70;;;;;;;;;;773253;178;918305;-70
2023/01/05 12:36:21;;;;;;;6.20;2.30;;;;;;;;;;769230;181;918659;-70
2023/01/05 12:38:48;;;;;;;3.43;1.80;;;;;;;;;;758370;182;919095;-63
2023/01/05 12:41:14;;;;;;;10.33;2.40;;;;;;;;;;755046;185;883765;-69
2023/01/05 12:43:55;;;;;;;4.43;1.63;;;;;;;;;;770399;182;918337;-63
2023/01/05 12:46:25;;;;;;;5.20;2.17;;;;;;;;;;768557;178;890905;-63
2023/01/05 12:49:00;;;;;;;5.07;1.37;;;;;;;;;;773940;180;816126;-64
2023/01/05 12:51:26;;;;;;;5.73;2.30;;;;;;;;;;771300;179;871406;-63
2023/01/05 12:53:54;;;;;;;6.43;2.63;;;;;;;;;;776286;181;932799;-70
2023/01/05 12:56:30;;;;;;;4.80;1.73;;;;;;;;;;772872;180;941856;-71
2023/01/05 12:59:07;;;;;;;5.60;1.50;;;;;;;;;;773920;181;919989;-63
2023/01/05 13:01:33;;;;;;;9.20;2.57;;;;;;;;;;773480;179;919394;-70
2023/01/05 13:03:59;;;;;;;3.53;1.87;;;;;;;;;;769593;181;916462;-63
2023/01/05 13:06:25;;;;;;;3.10;1.60;;;;;;;;;;766843;182;917929;-63
2023/01/05 13:08:52;;;;;;;5.73;1.97;;;;;;;;;;769547;182;921347;-70
2023/01/05 13:11:19;;;;;;;3.93;1.80;;;;;;;;;;773090;180;919018;-64
2023/01/05 13:13:45;;;;;;;3.77;1.77;;;;;;;;;;772095;181;918545;-63
2023/01/05 13:16:12;;;;;;;5.20;2.00;;;;;;;;;;768244;182;920429;-71
2023/01/05 13:18:38;;;;;;;5.50;2.20;;;;;;;;;;769843;179;917415;-70
2023/01/05 13:21:04;;;;;;;7.00;2.07;;;;;;;;;;773264;181;817193;-64
2023/01/05 13:23:31;;;;;;;5.40;1.73;;;;;;;;;;768550;179;939350;-63
2023/01/05 13:25:56;;;;;;;5.50;2.70;;;;;;;;;;770312;181;914910;-63
2023/01/05 13:28:22;;;;;;;5.40;2.20;;;;;;;;;;765971;179;919153;-64
2023/01/05 13:30:51;;;;;;;8.80;2.90;;;;;;;;;;774963;182;815180;-70
2023/01/05 13:33:15;;;;;;;5.57;2.20;;;;;;;;;;769102;179;918065;-63
2023/01/05 13:35:45;;;;;;;11.93;2.20;;;;;;;;;;766329;179;1529077;-70
2023/01/05 13:38:10;;;;;;;5.67;1.87;;;;;;;;;;773396;180;907197;-63
2023/01/05 13:40:37;;;;;;;6.27;2.00;;;;;;;;;;766752;181;919738;-69
2023/01/05 13:43:09;;;;;;;5.10;1.50;;;;;;;;;;769400;180;911921;-69
2023/01/05 13:45:41;;;;;;;4.20;1.70;;;;;;;;;;766176;180;891788;-64
2023/01/05 13:48:10;;;;;;;9.73;2.30;;;;;;;;;;772318;181;919546;-70
2023/01/05 13:50:39;;;;;;;5.07;2.10;;;;;;;;;;771842;181;820232;-70
2023/01/05 13:53:10;;;;;;;6.63;2.23;;;;;;;;;;767802;181;919855;-71
2023/01/05 13:55:37;;;;;;;9.67;2.60;;;;;;;;;;769598;181;912193;-66
2023/01/05 13:58:02;;;;;;;8.13;2.30;;;;;;;;;;770296;179;915420;-71
2023/01/05 14:00:28;;;;;;;6.23;2.60;;;;;;;;;;770255;180;939670;-63
2023/01/05 14:02:56;;;;;;;5.10;2.62;;;;;;;;;;767085;181;816961;-64
2023/01/05 14:05:23;;;;;;;6.23;1.97;;;;;;;;;;766873;181;920607;-69
2023/01/05 14:07:48;;;;;;;5.13;2.17;;;;;;;;;;774383;179;918428;-72
2023/01/05 14:10:18;;;;;;;6.07;2.30;;;;;;;;;;775229;181;714962;-63
2023/01/05 14:12:45;;;;;;;7.93;2.60;;;;;;;;;;770038;181;918003;-70
2023/01/05 14:15:16;;;;;;;6.20;1.60;;;;;;;;;;772154;179;920945;-64
2023/01/05 14:17:48;;;;;;;4.57;1.63;;;;;;;;;;772577;181;818017;-69
2023/01/05 14:20:30;;;;;;;9.63;1.93;;;;;;;;;;770144;180;817321;-70
2023/01/05 14:22:56;;;;;;;6.10;2.00;;;;;;;;;;767236;179;1020115;-69
2023/01/05 14:25:28;;;;;;;3.47;1.50;;;;;;;;;;770112;181;919607;-64
2023/01/05 14:28:00;;;;;;;6.00;1.60;;;;;;;;;;768960;181;918325;-64
2023/01/05 14:30:26;;;;;;;4.70;1.80;;;;;;;;;;770277;181;816806;-70
2023/01/05 14:32:51;;;;;;;5.83;2.57;;;;;;;;;;760094;181;860124;-63
2023/01/05 14:35:17;;;;;;;4.97;1.90;;;;;;;;;;766316;182;919505;-65
2023/01/05 14:38:04;;;;;;;3.87;1.80;;;;;;;;;;770027;182;910793;-64
2023/01/05 14:40:30;;;;;;;4.33;1.67;;;;;;;;;;764856;180;909243;-64
2023/01/05 14:42:55;;;;;;;3.80;2.03;;;;;;;;;;775150;181;920415;-63
2023/01/05 14:45:30;;;;;;;7.93;2.87;;;;;;;;;;768836;181;917925;-70
2023/01/05 14:47:57;;;;;;;3.80;1.70;;;;;;;;;;765434;181;918022;-70
2023/01/05 14:50:24;;;;;;;4.07;1.50;;;;;;;;;;770244;181;918974;-64
2023/01/05 14:52:53;;;;;;;4.10;1.53;;;;;;;;;;757073;182;915770;-70
2023/01/05 14:55:21;;;;;;;9.83;1.87;;;;;;;;;;770077;182;919717;-69
2023/01/05 14:57:48;;;;;;;3.70;1.97;;;;;;;;;;760908;183;916463;-63
2023/01/05 15:00:15;;;;;;;2.97;1.73;;;;;;;;;;766763;182;921353;-70
2023/01/05 15:02:46;;;;;;;7.60;2.30;;;;;;;;;;772469;181;913585;-70
2023/01/05 15:05:12;;;;;;;3.55;2.28;;;;;;;;;;767938;182;918325;-71
2023/01/05 15:07:38;;;;;;;3.95;1.92;;;;;;;;;;770655;180;919961;-70